Terminal Aerodrome Forecast
Issued by NWS Greer, SC

Home | Current Version | Previous Version | Text Only | Print | Product List | Glossary On
Versions: 1 2 3 4 5 6 7 8 9 10 11 12 13 14 15 16 17
000
FTUS42 KGSP 012320
TAFAVL
TAF
KAVL 012320Z 0200/0224 18008KT P6SM SCT060 BKN250
     FM020400 VRB03KT P6SM VCTS BKN030CB
     FM020900 VRB02KT 1SM BR SCT040 BKN200
     FM021300 21003KT P6SM SCT070 BKN200 PROB30 0213/0218 2SM -TSRA
      OVC040CB
     FM021800 18006KT P6SM -SHRA VCTS OVC050CB=

USA.gov is the U.S. government's official web portal to all federal, state and local government web resources and services.